Time;durP1;ratioP1;P1;durP2;ratioP2;P2;SDS_P1;SDS_P2;PMS_P1;PMS_P2;Temp;Humidity;BMP_temperature;BMP_pressure;BME280_temperature;BME280_humidity;BME280_pressure;Samples;Min_cycle;Max_cycle;Signal;HPM_P1;HPM_P2
2021/09/12 00:05:53;;;;;;;1999.90;999.90;;;;;;;19.75;78.63;101238.72;15747112;28;20048;-58
2021/09/12 00:13:27;;;;;;;1999.90;999.90;;;;;;;19.66;79.25;101231.69;15795158;28;20581;-59
2021/09/12 00:20:59;;;;;;;1999.90;999.90;;;;;;;19.52;79.45;101215.31;15765397;28;20658;-58
2021/09/12 00:28:32;;;;;;;1999.90;999.90;;;;;;;19.43;79.33;101223.25;15799593;28;20033;-58
2021/09/12 00:36:07;;;;;;;1999.90;999.90;;;;;;;19.43;79.04;101212.75;15774811;28;20127;-59
2021/09/12 00:43:41;;;;;;;1999.90;999.90;;;;;;;19.39;79.08;101214.72;15797414;28;20040;-58
2021/09/12 00:51:13;;;;;;;1999.90;999.90;;;;;;;19.18;79.26;101206.72;15727258;28;20059;-59
2021/09/12 00:58:48;;;;;;;1999.90;999.90;;;;;;;19.14;79.45;101213.50;15763717;28;20127;-59
2021/09/12 01:06:21;;;;;;;1999.90;999.90;;;;;;;19.01;78.95;101212.88;15751011;28;20095;-59
2021/09/12 01:13:56;;;;;;;1999.90;999.90;;;;;;;19.06;78.97;101211.75;15774291;28;20059;-57
2021/09/12 01:21:28;;;;;;;1999.90;999.90;;;;;;;18.97;78.84;101209.19;15803269;28;20051;-58
2021/09/12 01:29:02;;;;;;;1999.90;999.90;;;;;;;18.87;79.73;101205.00;15779265;28;20091;-58
2021/09/12 01:36:35;;;;;;;1999.90;999.90;;;;;;;18.78;79.22;101215.72;15800085;28;20055;-58
2021/09/12 01:44:09;;;;;;;1999.90;999.90;;;;;;;18.63;80.37;101216.63;15791177;28;20049;-59
2021/09/12 01:51:43;;;;;;;1999.90;999.90;;;;;;;18.59;79.87;101215.75;15773559;28;20048;-57
2021/09/12 01:59:16;;;;;;;1999.90;999.90;;;;;;;18.59;79.70;101215.75;15748022;28;20040;-59
2021/09/12 02:06:49;;;;;;;1999.90;999.90;;;;;;;18.56;79.56;101216.53;15789205;28;20299;-60
2021/09/12 02:14:22;;;;;;;1999.90;999.90;;;;;;;18.48;79.57;101211.91;15746510;28;20494;-61
2021/09/12 02:21:55;;;;;;;1999.90;999.90;;;;;;;18.31;79.21;101213.19;15795303;28;20043;-57
2021/09/12 02:29:28;;;;;;;1999.90;999.90;;;;;;;18.29;79.56;101210.75;15781883;28;20053;-58
2021/09/12 02:37:01;;;;;;;1999.90;999.90;;;;;;;18.21;78.93;101208.16;15787321;28;20047;-58
2021/09/12 02:44:34;;;;;;;1999.90;999.90;;;;;;;18.14;78.79;101203.19;15749804;28;20045;-59
2021/09/12 02:52:07;;;;;;;1999.90;999.90;;;;;;;18.00;79.49;101208.53;15768378;28;20041;-58
2021/09/12 02:59:41;;;;;;;1999.90;999.90;;;;;;;18.03;79.55;101207.78;15762372;28;20135;-57
2021/09/12 03:07:13;;;;;;;1999.90;999.90;;;;;;;17.99;79.01;101202.06;15747369;28;20045;-59
2021/09/12 03:14:47;;;;;;;1999.90;999.90;;;;;;;17.97;79.38;101204.47;15784582;28;20045;-58
2021/09/12 03:22:19;;;;;;;1999.90;999.90;;;;;;;17.78;79.64;101190.34;15723009;28;20036;-59
2021/09/12 03:29:53;;;;;;;1999.90;999.90;;;;;;;17.78;78.70;101201.63;15743686;28;20074;-58
2021/09/12 03:37:25;;;;;;;1999.90;999.90;;;;;;;17.88;78.96;101199.03;15802363;28;20468;-57
2021/09/12 03:44:59;;;;;;;1999.90;999.90;;;;;;;17.87;78.50;101196.59;15790833;28;20040;-59
2021/09/12 03:52:31;;;;;;;1999.90;999.90;;;;;;;17.74;78.93;101201.56;15761955;28;20482;-57
2021/09/12 04:00:08;;;;;;;1999.90;999.90;;;;;;;17.71;78.70;101193.00;15764223;28;20043;-59
2021/09/12 04:07:44;;;;;;;1999.90;999.90;;;;;;;17.59;79.28;101186.28;15739687;28;20045;-57
2021/09/12 04:15:18;;;;;;;1999.90;999.90;;;;;;;17.50;79.20;101191.31;15741920;28;20052;-60
2021/09/12 04:22:50;;;;;;;1999.90;999.90;;;;;;;17.44;79.62;101189.97;15802661;28;20123;-61
2021/09/12 04:30:24;;;;;;;1999.90;999.90;;;;;;;17.49;79.36;101183.22;15725251;28;20072;-60
2021/09/12 04:37:56;;;;;;;1999.90;999.90;;;;;;;17.46;79.27;101186.78;15777306;28;20078;-59
2021/09/12 04:45:30;;;;;;;1999.90;999.90;;;;;;;17.51;77.82;101186.50;15780092;28;20110;-61
2021/09/12 04:53:02;;;;;;;1999.90;999.90;;;;;;;17.41;78.48;101190.72;15764780;28;20486;-59
2021/09/12 05:00:38;;;;;;;1999.90;999.90;;;;;;;17.47;79.12;101192.03;15762158;28;20155;-60
2021/09/12 05:08:10;;;;;;;1999.90;999.90;;;;;;;17.50;78.86;101198.94;15763391;28;20044;-60
2021/09/12 05:15:45;;;;;;;1999.90;999.90;;;;;;;17.53;79.13;101212.34;15770322;28;20048;-58
2021/09/12 05:23:19;;;;;;;1999.90;999.90;;;;;;;17.63;78.49;101210.94;15797344;28;20448;-57
2021/09/12 05:30:52;;;;;;;1999.90;999.90;;;;;;;17.75;79.11;101206.00;15768872;28;20053;-59
2021/09/12 05:38:25;;;;;;;1999.90;999.90;;;;;;;18.14;78.27;101197.56;15779435;28;20044;-59
2021/09/12 05:45:58;;;;;;;1999.90;999.90;;;;;;;18.50;78.31;101201.88;15776452;28;20048;-59
2021/09/12 05:53:31;;;;;;;1999.90;999.90;;;;;;;18.68;77.29;101211.53;15761191;28;20521;-58
2021/09/12 06:01:04;;;;;;;1999.90;999.90;;;;;;;18.88;77.31;101220.75;15790283;28;20123;-60
2021/09/12 06:08:37;;;;;;;1999.90;999.90;;;;;;;18.95;77.36;101220.88;15754456;28;20382;-58
2021/09/12 06:16:14;;;;;;;1999.90;999.90;;;;;;;19.22;76.88;101229.41;15806776;28;20071;-59
2021/09/12 06:23:47;;;;;;;1999.90;999.90;;;;;;;19.47;76.67;101221.28;15730891;28;20044;-59
2021/09/12 06:31:21;;;;;;;1999.90;999.90;;;;;;;19.59;75.86;101229.56;15771181;28;20042;-59
2021/09/12 06:38:54;;;;;;;1999.90;999.90;;;;;;;19.63;75.67;101238.94;15727474;28;20413;-61
2021/09/12 06:46:27;;;;;;;1999.90;999.90;;;;;;;20.11;75.27;101244.84;15771803;28;20052;-58
2021/09/12 06:53:59;;;;;;;1999.90;999.90;;;;;;;20.42;74.03;101252.09;15783814;28;20052;-60
2021/09/12 07:01:33;;;;;;;1999.90;999.90;;;;;;;20.47;72.92;101260.31;15729131;28;20075;-59
2021/09/12 07:09:07;;;;;;;1999.90;999.90;;;;;;;20.29;75.43;101256.41;15744413;28;20044;-60
2021/09/12 07:16:41;;;;;;;1999.90;999.90;;;;;;;20.52;75.50;101256.28;15801265;28;20121;-60
2021/09/12 07:24:13;;;;;;;1999.90;999.90;;;;;;;21.17;74.12;101253.69;15769279;28;20044;-59
2021/09/12 07:31:47;;;;;;;1999.90;999.90;;;;;;;21.23;72.79;101259.81;15781721;28;20043;-59
2021/09/12 07:39:19;;;;;;;1999.90;999.90;;;;;;;21.90;71.77;101271.69;15779120;28;20071;-57
2021/09/12 07:46:54;;;;;;;1999.90;999.90;;;;;;;21.79;72.01;101275.69;15744884;28;20128;-57
2021/09/12 07:54:26;;;;;;;1999.90;999.90;;;;;;;21.74;72.67;101293.09;15720225;28;20040;-57
2021/09/12 08:02:00;;;;;;;1999.90;999.90;;;;;;;21.60;73.51;101296.66;15801865;28;20126;-59
2021/09/12 08:09:32;;;;;;;1999.90;999.90;;;;;;;21.64;72.37;101288.94;15796994;28;20044;-57
2021/09/12 08:17:06;;;;;;;1999.90;999.90;;;;;;;21.40;74.51;101296.09;15744955;28;20048;-60
2021/09/12 08:24:39;;;;;;;1999.90;999.90;;;;;;;21.44;73.82;101310.31;15759390;28;20043;-59
2021/09/12 08:32:12;;;;;;;1999.90;999.90;;;;;;;21.33;75.62;101305.34;15745960;28;20037;-59
2021/09/12 08:39:45;;;;;;;1999.90;999.90;;;;;;;21.44;75.54;101313.13;15738631;28;20032;-60
2021/09/12 08:47:20;;;;;;;1999.90;999.90;;;;;;;21.52;74.84;101306.31;15792339;28;20110;-60
2021/09/12 08:54:52;;;;;;;1999.90;999.90;;;;;;;21.49;74.67;101319.28;15802620;28;20052;-60
2021/09/12 09:02:28;;;;;;;1999.90;999.90;;;;;;;21.53;74.51;101305.91;15784604;28;20564;-60
2021/09/12 09:10:03;;;;;;;1999.90;999.90;;;;;;;21.87;73.69;101308.56;15801363;28;20060;-60
2021/09/12 09:17:42;;;;;;;1999.90;999.90;;;;;;;21.83;73.55;101307.75;15801792;28;20051;-61
2021/09/12 09:25:20;;;;;;;1999.90;999.90;;;;;;;22.28;72.49;101314.13;15793949;28;20056;-60
2021/09/12 09:32:54;;;;;;;1999.90;999.90;;;;;;;24.12;68.35;101304.97;15795445;28;20048;-59
2021/09/12 09:40:26;;;;;;;1999.90;999.90;;;;;;;24.13;65.93;101294.38;15812905;28;20044;-59
2021/09/12 09:48:13;;;;;;;1999.90;999.90;;;;;;;23.74;66.93;101300.16;15812818;28;20048;-62
2021/09/12 09:55:47;;;;;;;1999.90;999.90;;;;;;;23.86;66.16;101296.88;15812616;28;20044;-60
2021/09/12 10:03:24;;;;;;;1999.90;999.90;;;;;;;24.40;64.60;101298.41;15812045;28;20048;-62
2021/09/12 10:10:57;;;;;;;1999.90;999.90;;;;;;;24.13;64.02;101289.50;15812184;28;20048;-60
2021/09/12 10:18:31;;;;;;;1999.90;999.90;;;;;;;24.07;64.32;101279.75;15777328;28;20044;-60
2021/09/12 10:26:04;;;;;;;1999.90;999.90;;;;;;;24.36;63.81;101279.66;15792433;28;20040;-62
2021/09/12 10:33:39;;;;;;;1999.90;999.90;;;;;;;24.54;63.03;101276.72;15791060;28;20032;-60
2021/09/12 10:41:17;;;;;;;1999.90;999.90;;;;;;;24.93;61.85;101288.72;15808064;28;20497;-61
2021/09/12 10:49:05;;;;;;;1999.90;999.90;;;;;;;25.52;58.65;101279.28;15808346;28;20123;-58
2021/09/12 10:56:40;;;;;;;1999.90;999.90;;;;;;;25.73;59.63;101287.69;15789913;28;20044;-61
2021/09/12 11:04:15;;;;;;;1999.90;999.90;;;;;;;25.59;58.29;101282.88;15807728;28;20523;-62
2021/09/12 11:11:47;;;;;;;1999.90;999.90;;;;;;;25.44;58.46;101277.75;15788468;28;20048;-61
2021/09/12 11:19:21;;;;;;;1999.90;999.90;;;;;;;25.41;59.82;101270.81;15788743;28;20052;-61
2021/09/12 11:26:55;;;;;;;1999.90;999.90;;;;;;;25.31;59.27;101272.53;15787780;28;20047;-60
2021/09/12 11:34:29;;;;;;;1999.90;999.90;;;;;;;25.47;58.53;101263.41;15805521;28;20048;-61
2021/09/12 11:42:04;;;;;;;1999.90;999.90;;;;;;;25.69;57.96;101263.22;15804273;28;20032;-62
2021/09/12 11:49:38;;;;;;;1999.90;999.90;;;;;;;25.98;57.42;101253.13;15769407;28;20044;-60
2021/09/12 11:57:13;;;;;;;1999.90;999.90;;;;;;;26.77;56.00;101253.69;15804476;28;20703;-60
2021/09/12 12:04:47;;;;;;;1999.90;999.90;;;;;;;26.98;54.94;101243.97;15785959;28;20638;-61
2021/09/12 12:12:21;;;;;;;1999.90;999.90;;;;;;;26.40;56.65;101236.69;15785194;28;20483;-61
2021/09/12 12:19:57;;;;;;;1999.90;999.90;;;;;;;26.14;56.26;101232.47;15803227;28;20047;-59
2021/09/12 12:27:29;;;;;;;1999.90;999.90;;;;;;;25.59;58.23;101225.75;15784980;28;20055;-59
2021/09/12 12:35:15;;;;;;;1999.90;999.90;;;;;;;25.53;60.13;101221.75;15802685;28;20048;-59
2021/09/12 12:42:48;;;;;;;1999.90;999.90;;;;;;;25.76;57.47;101223.97;15802564;28;20405;-61
2021/09/12 12:50:31;;;;;;;1999.90;999.90;;;;;;;26.74;56.03;101219.41;15803075;28;20047;-60
2021/09/12 12:58:05;;;;;;;1999.90;999.90;;;;;;;27.30;54.87;101226.28;15791742;28;20063;-59
2021/09/12 13:05:40;;;;;;;1999.90;999.90;;;;;;;27.26;54.42;101219.81;15815045;28;20047;-59
2021/09/12 13:13:12;;;;;;;1999.90;999.90;;;;;;;26.83;55.08;101216.00;15814879;28;20048;-60
2021/09/12 13:20:47;;;;;;;1999.90;999.90;;;;;;;26.45;58.15;101213.31;15814602;28;20040;-61
2021/09/12 13:28:24;;;;;;;1999.90;999.90;;;;;;;25.61;57.36;101205.31;15805567;28;20052;-60
2021/09/12 13:35:58;;;;;;;1999.90;999.90;;;;;;;27.43;53.09;101194.94;15785863;28;20086;-58
2021/09/12 13:43:30;;;;;;;1999.90;999.90;;;;;;;26.49;56.10;101194.03;15813086;28;20493;-62
2021/09/12 13:51:04;;;;;;;;;;;;;;;25.87;56.48;101189.53;15786845;28;20123;-61
2021/09/12 13:58:36;;;;;;;1999.90;999.90;;;;;;;25.55;56.93;101184.19;15811986;28;20590;-60
2021/09/12 14:06:10;;;;;;;;;;;;;;;25.65;56.34;101183.25;15810288;28;20123;-61
2021/09/12 14:13:42;;;;;;;1999.90;999.90;;;;;;;25.20;58.37;101194.69;15810878;28;19920;-62
2021/09/12 14:21:17;;;;;;;1999.90;999.90;;;;;;;24.50;57.47;101188.31;15809939;28;20052;-61
2021/09/12 14:28:49;;;;;;;1999.90;999.90;;;;;;;24.15;59.99;101190.09;15810038;28;20055;-61
2021/09/12 14:36:23;;;;;;;1999.90;999.90;;;;;;;23.90;61.42;101198.78;15776698;28;20044;-60
2021/09/12 14:43:55;;;;;;;1999.90;999.90;;;;;;;23.61;64.21;101191.53;15808213;28;20494;-58
2021/09/12 14:51:29;;;;;;;1999.90;999.90;;;;;;;23.48;66.02;101194.00;15808954;28;20430;-58
2021/09/12 14:59:02;;;;;;;1999.90;999.90;;;;;;;23.19;67.86;101195.25;15774289;28;20076;-61
2021/09/12 15:06:36;;;;;;;1999.90;999.90;;;;;;;22.95;68.81;101200.56;15807726;28;20471;-61
2021/09/12 15:14:08;;;;;;;1999.90;999.90;;;;;;;23.01;69.64;101196.06;15789634;28;20056;-60
2021/09/12 15:21:44;;;;;;;1999.90;999.90;;;;;;;22.75;71.11;101185.88;15806913;28;20076;-60
2021/09/12 15:29:16;;;;;;;1999.90;999.90;;;;;;;22.60;72.21;101181.38;15788028;28;20055;-60
2021/09/12 15:36:52;;;;;;;1999.90;999.90;;;;;;;22.70;72.23;101174.88;15807471;28;20048;-60
2021/09/12 15:44:26;;;;;;;1999.90;999.90;;;;;;;22.87;71.08;101170.47;15805774;28;20066;-58
2021/09/12 15:52:02;;;;;;;1999.90;999.90;;;;;;;22.90;69.87;101149.72;15806531;28;20135;-60
2021/09/12 15:59:36;;;;;;;1999.90;999.90;;;;;;;22.83;69.40;101137.53;15787256;28;20054;-60
2021/09/12 16:07:09;;;;;;;1999.90;999.90;;;;;;;22.93;69.33;101140.41;15797871;28;20138;-61
2021/09/12 16:14:42;;;;;;;1999.90;999.90;;;;;;;23.04;68.31;101135.50;15804284;28;20036;-61
2021/09/12 16:22:16;;;;;;;1999.90;999.90;;;;;;;22.99;69.49;101143.63;15803907;28;20497;-60
2021/09/12 16:29:50;;;;;;;1999.90;999.90;;;;;;;22.75;69.83;101148.91;15784856;28;20094;-61
2021/09/12 16:37:23;;;;;;;1999.90;999.90;;;;;;;22.53;70.83;101144.44;15803075;28;20626;-61
2021/09/12 16:44:59;;;;;;;1999.90;999.90;;;;;;;22.41;71.86;101142.78;15803006;28;20051;-61
2021/09/12 16:52:33;;;;;;;1999.90;999.90;;;;;;;22.55;72.07;101138.31;15785107;28;20052;-60
2021/09/12 17:00:07;;;;;;;1999.90;999.90;;;;;;;22.51;72.47;101131.81;15784579;28;20055;-61
2021/09/12 17:07:42;;;;;;;1999.90;999.90;;;;;;;22.51;72.70;101129.81;15802463;28;20059;-61
2021/09/12 17:15:16;;;;;;;1999.90;999.90;;;;;;;22.41;72.84;101133.44;15802884;28;20128;-61
2021/09/12 17:22:53;;;;;;;1999.90;999.90;;;;;;;22.14;73.69;101125.25;15784451;28;20044;-61
2021/09/12 17:30:25;;;;;;;1999.90;999.90;;;;;;;22.31;73.42;101128.56;15801538;28;20130;-61
2021/09/12 17:38:00;;;;;;;1999.90;999.90;;;;;;;22.06;74.36;101131.28;15794796;28;20135;-58
2021/09/12 17:45:33;;;;;;;1999.90;999.90;;;;;;;22.08;74.26;101129.69;15808542;28;20044;-61
2021/09/12 17:53:07;;;;;;;1999.90;999.90;;;;;;;21.91;74.45;101138.97;15778024;28;20402;-61
2021/09/12 18:00:39;;;;;;;1999.90;999.90;;;;;;;21.64;74.45;101137.63;15811695;28;20616;-58
2021/09/12 18:08:17;;;;;;;1999.90;999.90;;;;;;;21.46;75.34;101135.50;15805225;28;20048;-60
2021/09/12 18:15:49;;;;;;;1999.90;999.90;;;;;;;21.26;75.58;101137.03;15791895;28;20529;-60
2021/09/12 18:23:23;;;;;;;1999.90;999.90;;;;;;;21.16;75.42;101141.41;15808980;28;20494;-62
2021/09/12 18:30:55;;;;;;;1999.90;999.90;;;;;;;21.07;76.52;101142.97;15760819;28;20039;-62
2021/09/12 18:38:30;;;;;;;1999.90;999.90;;;;;;;21.00;76.38;101160.72;15774548;28;20078;-61
2021/09/12 18:46:03;;;;;;;1999.90;999.90;;;;;;;20.88;76.31;101178.88;15760436;28;20127;-63
2021/09/12 18:53:38;;;;;;;1999.90;999.90;;;;;;;20.83;77.23;101184.91;15772715;28;20055;-60
2021/09/12 19:01:10;;;;;;;1999.90;999.90;;;;;;;20.71;76.84;101191.69;15760072;28;20513;-59
2021/09/12 19:08:44;;;;;;;1999.90;999.90;;;;;;;20.72;76.33;101184.00;15744862;28;20493;-60
2021/09/12 19:16:18;;;;;;;1999.90;999.90;;;;;;;20.53;76.34;101204.91;15786763;28;20048;-60
2021/09/12 19:23:52;;;;;;;1999.90;999.90;;;;;;;20.56;77.02;101209.78;15791608;28;20136;-61
2021/09/12 19:31:25;;;;;;;1999.90;999.90;;;;;;;20.54;76.76;101203.69;15763249;28;20474;-60
2021/09/12 19:39:03;;;;;;;1999.90;999.90;;;;;;;20.38;76.45;101206.72;15786798;28;20040;-59
2021/09/12 19:46:36;;;;;;;1999.90;999.90;;;;;;;20.44;76.24;101225.03;15761562;28;20040;-61
2021/09/12 19:54:13;;;;;;;1999.90;999.90;;;;;;;20.36;77.17;101213.97;15740228;28;20052;-61
2021/09/12 20:01:46;;;;;;;1999.90;999.90;;;;;;;20.26;77.28;101220.34;15769373;28;20524;-58
2021/09/12 20:09:22;;;;;;;1999.90;999.90;;;;;;;20.30;77.43;101222.00;15772665;28;20094;-61
2021/09/12 20:16:56;;;;;;;1999.90;999.90;;;;;;;20.31;77.48;101229.31;15737951;28;20033;-60
2021/09/12 20:24:32;;;;;;;1999.90;999.90;;;;;;;20.25;77.58;101235.72;15739500;28;20043;-57
2021/09/12 20:32:08;;;;;;;1999.90;999.90;;;;;;;20.16;78.06;101231.16;15748875;28;20028;-60
2021/09/12 20:39:42;;;;;;;1999.90;999.90;;;;;;;20.23;78.26;101240.97;15768770;28;20033;-60
2021/09/12 20:47:15;;;;;;;1999.90;999.90;;;;;;;20.22;78.34;101240.16;15731460;28;20041;-59
2021/09/12 20:54:49;;;;;;;1999.90;999.90;;;;;;;20.26;78.57;101243.84;15748936;28;20504;-60
2021/09/12 21:02:21;;;;;;;1999.90;999.90;;;;;;;20.27;78.28;101239.78;15782292;28;20033;-60
2021/09/12 21:09:55;;;;;;;1999.90;999.90;;;;;;;20.34;78.09;101241.91;15791417;28;20123;-60
2021/09/12 21:17:28;;;;;;;1999.90;999.90;;;;;;;20.40;77.92;101246.81;15745458;28;20041;-58
2021/09/12 21:25:01;;;;;;;1999.90;999.90;;;;;;;20.39;78.21;101245.19;15732354;28;20123;-58
2021/09/12 21:32:34;;;;;;;1999.90;999.90;;;;;;;20.31;78.56;101240.63;15735652;28;20040;-60
2021/09/12 21:40:09;;;;;;;1999.90;999.90;;;;;;;20.20;78.01;101248.19;15764940;28;20052;-60
2021/09/12 21:47:42;;;;;;;1999.90;999.90;;;;;;;20.06;78.30;101251.69;15753785;28;20242;-60
2021/09/12 21:55:15;;;;;;;1999.90;999.90;;;;;;;19.87;78.34;101249.81;15772558;28;20045;-61
2021/09/12 22:02:48;;;;;;;1999.90;999.90;;;;;;;19.73;78.21;101252.44;15780374;28;20460;-61
2021/09/12 22:10:22;;;;;;;1999.90;999.90;;;;;;;19.67;77.87;101259.63;15823994;28;20066;-60
2021/09/12 22:17:55;;;;;;;1999.90;999.90;;;;;;;19.42;78.39;101255.59;15816245;28;20441;-60
2021/09/12 22:25:29;;;;;;;1999.90;999.90;;;;;;;19.26;77.77;101256.53;15783071;28;20107;-60
2021/09/12 22:33:03;;;;;;;1999.90;999.90;;;;;;;19.26;78.09;101247.22;15773708;28;20079;-61
2021/09/12 22:40:38;;;;;;;1999.90;999.90;;;;;;;19.14;78.61;101241.78;15796533;28;20121;-60
2021/09/12 22:48:10;;;;;;;1999.90;999.90;;;;;;;19.00;78.75;101234.69;15750586;28;20453;-57
2021/09/12 22:55:44;;;;;;;1999.90;999.90;;;;;;;18.94;78.86;101241.84;15760700;28;20041;-58
2021/09/12 23:03:16;;;;;;;1999.90;999.90;;;;;;;18.85;78.25;101243.28;15793095;28;20066;-59
2021/09/12 23:10:50;;;;;;;1999.90;999.90;;;;;;;18.78;78.57;101237.53;15771749;28;20079;-59
2021/09/12 23:18:22;;;;;;;1999.90;999.90;;;;;;;18.74;78.23;101235.44;15790027;28;20079;-57
2021/09/12 23:25:56;;;;;;;1999.90;999.90;;;;;;;18.76;78.12;101226.63;15790892;28;20119;-58
2021/09/12 23:33:28;;;;;;;1999.90;999.90;;;;;;;18.56;78.77;101237.13;15773996;28;20032;-60
2021/09/12 23:41:02;;;;;;;1999.90;999.90;;;;;;;18.50;77.86;101232.94;15757784;28;20127;-60
2021/09/12 23:48:34;;;;;;;1999.90;999.90;;;;;;;18.32;78.34;101241.06;15773882;28;20040;-60
2021/09/12 23:56:09;;;;;;;1999.90;999.90;;;;;;;18.25;78.11;101242.97;15778581;28;20072;-59
